map of PMD home
PMD - Airport
Location
City:  Palmdale, California, United States
Name:Palmdale USAF Plant 42 Airport
ICAO:KPMD
IATA:PMD
FAA LID:PMD

Details
Type:Airport (Airfield)
Use:Public/Civil, Military
Latitude:34°37'46"N (34.629389)
Longitude:118°05'04"W (-118.084552)
Datum:WGS 1984
Elevation:2542 ft (775 m)
Variation:12.03°E (WMM2015 magnetic declination)
-0.09° annual change
Runways:3
Longest:12002 × 200 ft (3658 × 61 m), paved

Time
Time Zone:UTC-8 (DST-7)
Local Time:

Weather
METAR:KPMD 212253Z 25018KT 10SM CLR 39/04 A2991 RMK AO2 SLP094 T03940039
TAF:KPMD 211740Z 2118/2218 36004KT P6SM SKC
FM212100 25018G28KT P6SM SKC
FM220300 25015KT P6SM SKC

Related Locations
Nearby:
Farthest:ZSE: 11434 mi / 18402 km
St-Pierre (St-Pierre de la Réunion) [Pierrefonds], RE

Find:

   beyond  
but within

Other Information
Maps:
NOTAMs:
Links:
Sources:

  
  • flag of United States
  • flag of California
  

Airport Diagram

Airport diagram for PMD

Airport diagram PDF

Sectional Chart

Flight Planning
at skyvector.com

Satellite Image

Google Maps Satellite view

 

Copyright © 2004-2018 Karl L. Swartz. All rights reserved.
The Great Circle Mapper name and logo are trademarks of the Great Circle Mapper.
All other trademarks mentioned herein belong to their respective owners.
Please see credits for attibutions and further copyright information.

  Follow gcmap on Facebook Follow gcmap on Twitter Follow gcmap on Google+ GCmap on LinkedIn

hCard Microformat

Geo Microformat